createdAt,value
2022-12-25T00:01:22.792Z,98704.30
2022-12-25T00:03:50.388Z,98707.24
2022-12-25T00:06:17.875Z,98707.71
2022-12-25T00:08:44.673Z,98710.55
2022-12-25T00:11:13.475Z,98710.06
2022-12-25T00:13:41.064Z,98708.88
2022-12-25T00:16:19.305Z,98713.91
2022-12-25T00:18:47.029Z,98715.71
2022-12-25T00:21:16.281Z,98717.55
2022-12-25T00:23:43.450Z,98721.05
2022-12-25T00:26:15.894Z,98722.53
2022-12-25T00:28:42.913Z,98727.66
2022-12-25T00:31:11.919Z,98732.10
2022-12-25T00:33:40.036Z,98736.02
2022-12-25T00:36:07.650Z,98744.63
2022-12-25T00:38:35.755Z,98744.94
2022-12-25T00:41:14.052Z,98748.80
2022-12-25T00:43:44.508Z,98748.83
2022-12-25T00:46:12.772Z,98749.88
2022-12-25T00:48:40.192Z,98752.80
2022-12-25T00:51:08.438Z,98750.16
2022-12-25T00:53:35.367Z,98753.50
2022-12-25T00:56:04.299Z,98754.10
2022-12-25T00:58:32.640Z,98752.98
2022-12-25T01:00:59.765Z,98750.79
2022-12-25T01:03:26.804Z,98755.01
2022-12-25T01:05:56.221Z,98760.85
2022-12-25T01:08:23.171Z,98763.59
2022-12-25T01:10:57.698Z,98763.23
2022-12-25T01:13:24.843Z,98764.70
2022-12-25T01:15:54.851Z,98764.85
2022-12-25T01:18:22.728Z,98768.18
2022-12-25T01:20:49.772Z,98773.70
2022-12-25T01:23:17.057Z,98773.93
2022-12-25T01:25:43.899Z,98777.89
2022-12-25T01:28:10.894Z,98775.77
2022-12-25T01:30:37.765Z,98772.66
2022-12-25T01:33:05.002Z,98770.36
2022-12-25T01:35:31.876Z,98774.26
2022-12-25T01:37:58.712Z,98772.92
2022-12-25T01:40:25.662Z,98772.75
2022-12-25T01:42:53.001Z,98771.02
2022-12-25T01:45:29.273Z,98776.86
2022-12-25T01:47:56.242Z,98784.30
2022-12-25T01:50:23.247Z,98790.56
2022-12-25T01:52:50.080Z,98794.82
2022-12-25T01:55:17.055Z,98798.40
2022-12-25T01:57:44.074Z,98793.06
2022-12-25T02:00:11.836Z,98796.23
2022-12-25T02:02:39.001Z,98800.33
2022-12-25T02:05:14.415Z,98799.95
2022-12-25T02:07:41.606Z,98803.90
2022-12-25T02:10:10.749Z,98804.58
2022-12-25T02:12:37.906Z,98805.16
2022-12-25T02:15:13.057Z,98808.64
2022-12-25T02:18:01.734Z,98813.95
2022-12-25T02:21:07.123Z,98815.27
2022-12-25T02:24:05.249Z,98815.81
2022-12-25T02:26:46.337Z,98817.76
2022-12-25T02:29:17.956Z,98816.14
2022-12-25T02:32:15.643Z,98814.48
2022-12-25T02:35:02.868Z,98819.59
2022-12-25T02:37:35.264Z,98822.45
2022-12-25T02:40:15.399Z,98821.15
2022-12-25T02:43:07.218Z,98819.54
2022-12-25T02:46:18.265Z,98822.33
2022-12-25T02:49:07.365Z,98824.76
2022-12-25T02:51:54.792Z,98824.88
2022-12-25T02:54:43.882Z,98828.54
2022-12-25T02:57:30.654Z,98829.33
2022-12-25T03:00:16.340Z,98833.91
2022-12-25T03:03:02.157Z,98841.29
2022-12-25T03:05:48.118Z,98841.46
2022-12-25T03:08:18.770Z,98843.38
2022-12-25T03:11:07.402Z,98849.05
2022-12-25T03:13:36.598Z,98852.88
2022-12-25T03:16:22.459Z,98855.05
2022-12-25T03:18:49.567Z,98854.56
2022-12-25T03:21:35.284Z,98852.44
2022-12-25T03:24:21.319Z,98857.23
2022-12-25T03:26:57.686Z,98860.09
2022-12-25T03:30:01.585Z,98861.42
2022-12-25T03:33:18.098Z,98863.51
2022-12-25T03:36:05.929Z,98864.88
2022-12-25T03:38:51.926Z,98866.06
2022-12-25T03:41:53.451Z,98871.84
2022-12-25T03:45:25.859Z,98875.08
2022-12-25T03:48:18.654Z,98880.81
2022-12-25T03:51:07.164Z,98877.27
2022-12-25T03:54:05.693Z,98879.86
2022-12-25T03:56:51.642Z,98877.82
2022-12-25T03:59:38.352Z,98881.69
2022-12-25T04:02:24.206Z,98878.83
2022-12-25T04:05:10.228Z,98881.14
2022-12-25T04:07:56.031Z,98883.23
2022-12-25T04:10:41.831Z,98890.31
2022-12-25T04:13:27.890Z,98888.51
2022-12-25T04:16:21.105Z,98888.52
2022-12-25T04:19:06.792Z,98892.15
2022-12-25T04:21:52.632Z,98900.81
2022-12-25T04:24:38.345Z,98899.95
2022-12-25T04:27:24.328Z,98899.90
2022-12-25T04:30:10.196Z,98904.04
2022-12-25T04:32:55.781Z,98907.65
2022-12-25T04:35:41.463Z,98913.02
2022-12-25T04:38:08.316Z,98916.12
2022-12-25T04:40:35.967Z,98913.06
2022-12-25T04:43:02.803Z,98913.77
2022-12-25T04:45:29.851Z,98914.44
2022-12-25T04:47:59.839Z,98920.38
2022-12-25T04:50:26.817Z,98922.77
2022-12-25T04:52:53.696Z,98928.95
2022-12-25T04:55:20.600Z,98934.44
2022-12-25T04:57:47.507Z,98932.48
2022-12-25T05:00:15.197Z,98938.70
2022-12-25T05:02:42.206Z,98941.14
2022-12-25T05:05:09.399Z,98943.39
2022-12-25T05:07:36.256Z,98948.17
2022-12-25T05:10:03.634Z,98948.97
2022-12-25T05:12:30.551Z,98949.77
2022-12-25T05:14:57.351Z,98948.71
2022-12-25T05:17:24.523Z,98949.09
2022-12-25T05:19:51.464Z,98952.20
2022-12-25T05:22:18.281Z,98952.10
2022-12-25T05:24:45.165Z,98956.17
2022-12-25T05:27:11.996Z,98957.88
2022-12-25T05:29:39.061Z,98960.11
2022-12-25T05:32:06.084Z,98961.73
2022-12-25T05:34:33.151Z,98967.60
2022-12-25T05:37:00.191Z,98969.23
2022-12-25T05:39:27.026Z,98975.77
2022-12-25T05:41:53.889Z,98976.52
2022-12-25T05:44:20.797Z,98976.27
2022-12-25T05:46:47.770Z,98980.48
2022-12-25T05:49:14.816Z,98983.64
2022-12-25T05:51:41.782Z,98984.25
2022-12-25T05:54:08.810Z,98983.59
2022-12-25T05:56:37.750Z,98985.75
2022-12-25T05:59:04.754Z,98988.56
2022-12-25T06:01:31.902Z,98992.61
2022-12-25T06:03:59.062Z,98998.95
2022-12-25T06:06:26.029Z,99003.46
2022-12-25T06:08:56.087Z,99004.17
2022-12-25T06:11:23.044Z,99006.99
2022-12-25T06:13:51.859Z,99016.60
2022-12-25T06:16:19.226Z,99019.68
2022-12-25T06:18:48.492Z,99020.83
2022-12-25T06:21:15.535Z,99024.39
2022-12-25T06:23:42.606Z,99028.52
2022-12-25T06:26:11.798Z,99029.00
2022-12-25T06:28:38.909Z,99034.23
2022-12-25T06:31:11.688Z,99035.82
2022-12-25T06:33:38.767Z,99039.29
2022-12-25T06:36:10.695Z,99039.84
2022-12-25T06:38:37.889Z,99043.33
2022-12-25T06:41:12.603Z,99045.30
2022-12-25T06:43:39.754Z,99046.11
2022-12-25T06:46:11.895Z,99047.55
2022-12-25T06:48:40.528Z,99054.63
2022-12-25T06:51:07.546Z,99057.13
2022-12-25T06:53:40.230Z,99063.52
2022-12-25T06:56:18.364Z,99061.57
2022-12-25T06:58:50.216Z,99067.21
2022-12-25T07:01:20.285Z,99072.80
2022-12-25T07:03:48.222Z,99076.56
2022-12-25T07:06:15.347Z,99078.91
2022-12-25T07:08:42.219Z,99080.61
2022-12-25T07:11:09.208Z,99085.95
2022-12-25T07:13:36.157Z,99090.28
2022-12-25T07:16:04.312Z,99093.52
2022-12-25T07:18:31.478Z,99099.54
2022-12-25T07:20:59.909Z,99103.42
2022-12-25T07:23:27.111Z,99104.70
2022-12-25T07:26:00.916Z,99106.33
2022-12-25T07:28:27.870Z,99110.77
2022-12-25T07:30:54.907Z,99110.12
2022-12-25T07:33:21.850Z,99112.29
2022-12-25T07:35:48.902Z,99118.34
2022-12-25T07:38:15.941Z,99118.85
2022-12-25T07:40:46.381Z,99123.08
2022-12-25T07:43:13.519Z,99125.98
2022-12-25T07:45:40.461Z,99125.54
2022-12-25T07:48:11.916Z,99127.66
2022-12-25T07:50:42.358Z,99129.52
2022-12-25T07:53:09.293Z,99133.42
2022-12-25T07:55:36.177Z,99130.71
2022-12-25T07:58:03.190Z,99134.21
2022-12-25T08:00:34.132Z,99138.67
2022-12-25T08:03:01.424Z,99140.95
2022-12-25T08:05:28.554Z,99146.19
2022-12-25T08:07:57.625Z,99147.30
2022-12-25T08:10:25.483Z,99148.34
2022-12-25T08:12:56.097Z,99148.78
2022-12-25T08:15:23.122Z,99149.52
2022-12-25T08:17:50.204Z,99150.20
2022-12-25T08:20:17.115Z,99153.86
2022-12-25T08:22:47.287Z,99154.03
2022-12-25T08:25:15.941Z,99158.14
2022-12-25T08:27:42.797Z,99163.33
2022-12-25T08:30:09.939Z,99164.62
2022-12-25T08:32:36.818Z,99167.94
2022-12-25T08:35:03.817Z,99170.08
2022-12-25T08:40:11.888Z,99173.48
2022-12-25T08:42:38.766Z,99176.42
2022-12-25T08:45:07.020Z,99179.70
2022-12-25T08:47:34.179Z,99185.33
2022-12-25T08:50:01.025Z,99192.58
2022-12-25T08:52:28.848Z,99198.27
2022-12-25T08:54:56.346Z,99197.58
2022-12-25T08:57:23.283Z,99197.09
2022-12-25T08:59:50.133Z,99196.73
2022-12-25T09:02:17.191Z,99198.88
2022-12-25T09:04:46.691Z,99202.09
2022-12-25T09:07:13.516Z,99201.60
2022-12-25T09:09:40.599Z,99200.66
2022-12-25T09:12:07.677Z,99206.77
2022-12-25T09:14:34.546Z,99212.46
2022-12-25T09:17:01.628Z,99219.52
2022-12-25T09:19:28.845Z,99219.72
2022-12-25T09:21:55.791Z,99225.47
2022-12-25T09:24:22.865Z,99224.33
2022-12-25T09:26:49.819Z,99226.35
2022-12-25T09:29:18.002Z,99226.10
2022-12-25T09:31:44.929Z,99235.16
2022-12-25T09:34:17.031Z,99235.48
2022-12-25T09:36:45.688Z,99235.00
2022-12-25T09:39:12.654Z,99239.02
2022-12-25T09:41:54.378Z,99239.08
2022-12-25T09:44:42.227Z,99238.01
2022-12-25T09:47:12.284Z,99240.31
2022-12-25T09:49:42.340Z,99240.70
2022-12-25T09:52:12.014Z,99244.45
2022-12-25T09:54:46.387Z,99246.13
2022-12-25T09:57:13.787Z,99243.73
2022-12-25T09:59:43.201Z,99252.04
2022-12-25T10:03:01.038Z,99251.79
2022-12-25T10:06:20.153Z,99252.81
2022-12-25T10:09:40.507Z,99256.07
2022-12-25T10:12:27.512Z,99258.73
2022-12-25T10:15:12.979Z,99261.80
2022-12-25T10:17:42.571Z,99267.63
2022-12-25T10:20:16.415Z,99267.96
2022-12-25T10:23:19.590Z,99270.08
2022-12-25T10:25:46.587Z,99266.15
2022-12-25T10:28:23.698Z,99262.06
2022-12-25T10:30:50.594Z,99261.82
2022-12-25T10:33:17.621Z,99263.91
2022-12-25T10:35:44.475Z,99264.45
2022-12-25T10:38:13.875Z,99265.42
2022-12-25T10:41:05.402Z,99264.41
2022-12-25T10:43:55.548Z,99263.59
2022-12-25T10:46:24.435Z,99271.71
2022-12-25T10:49:00.704Z,99279.83
2022-12-25T10:51:38.409Z,99285.70
2022-12-25T10:54:25.006Z,99288.59
2022-12-25T10:57:02.572Z,99290.36
2022-12-25T10:59:34.193Z,99290.58
2022-12-25T11:02:10.471Z,99290.20
2022-12-25T11:04:37.481Z,99291.27
2022-12-25T11:07:14.507Z,99292.41
2022-12-25T11:09:49.514Z,99290.77
2022-12-25T11:12:20.222Z,99290.45
2022-12-25T11:14:58.944Z,99290.91
2022-12-25T11:17:26.158Z,99289.15
2022-12-25T11:20:01.010Z,99290.08
2022-12-25T11:22:29.375Z,99296.17
2022-12-25T11:24:56.386Z,99297.06
2022-12-25T11:27:28.033Z,99298.92
2022-12-25T11:29:59.872Z,99295.36
2022-12-25T11:32:31.318Z,99299.65
2022-12-25T11:34:58.530Z,99304.52
2022-12-25T11:37:33.723Z,99310.75
2022-12-25T11:40:00.638Z,99316.85
2022-12-25T11:42:32.524Z,99320.52
2022-12-25T11:45:03.912Z,99322.19
2022-12-25T11:47:35.876Z,99322.57
2022-12-25T11:50:46.489Z,99321.61
2022-12-25T11:53:27.266Z,99327.79
2022-12-25T11:55:56.521Z,99332.74
2022-12-25T11:58:49.799Z,99335.17
2022-12-25T12:01:19.637Z,99341.59
2022-12-25T12:03:46.587Z,99347.70
2022-12-25T12:07:01.205Z,99348.06
2022-12-25T12:09:46.884Z,99351.88
2022-12-25T12:12:27.637Z,99354.17
2022-12-25T12:15:08.437Z,99358.10
2022-12-25T12:17:35.305Z,99358.90
2022-12-25T12:20:34.877Z,99362.48
2022-12-25T12:23:02.808Z,99368.40
2022-12-25T12:25:29.920Z,99371.55
2022-12-25T12:28:05.173Z,99374.48
2022-12-25T12:30:34.833Z,99383.02
2022-12-25T12:33:03.248Z,99379.27
2022-12-25T12:35:34.786Z,99382.88
2022-12-25T12:38:01.708Z,99384.09
2022-12-25T12:40:35.590Z,99387.47
2022-12-25T12:43:05.978Z,99393.27
2022-12-25T12:45:35.250Z,99396.95
2022-12-25T12:48:02.461Z,99400.85
2022-12-25T12:50:38.162Z,99405.27
2022-12-25T12:56:16.530Z,99411.85
2022-12-25T12:58:51.108Z,99414.11
2022-12-25T13:01:31.282Z,99415.55
2022-12-25T13:04:18.862Z,99415.58
2022-12-25T13:07:04.529Z,99420.65
2022-12-25T13:09:40.449Z,99417.35
2022-12-25T13:12:08.302Z,99415.88
2022-12-25T13:14:35.326Z,99414.36
2022-12-25T13:17:02.341Z,99416.30
2022-12-25T13:19:29.336Z,99421.48
2022-12-25T13:22:01.131Z,99423.47
2022-12-25T13:24:29.908Z,99424.95
2022-12-25T13:26:56.909Z,99425.80
2022-12-25T13:29:30.083Z,99422.80
2022-12-25T13:31:58.237Z,99432.73
2022-12-25T13:34:38.096Z,99438.92
2022-12-25T13:37:09.629Z,99437.95
2022-12-25T13:39:36.895Z,99443.96
2022-12-25T13:42:06.200Z,99440.44
2022-12-25T13:44:40.412Z,99439.38
2022-12-25T13:47:21.565Z,99446.52
2022-12-25T13:49:48.825Z,99442.10
2022-12-25T13:52:18.917Z,99443.38
2022-12-25T13:55:02.561Z,99447.95
2022-12-25T13:57:39.799Z,99456.63
2022-12-25T14:00:08.260Z,99460.34
2022-12-25T14:02:36.612Z,99461.19
2022-12-25T14:05:26.952Z,99467.36
2022-12-25T14:07:55.030Z,99468.10
2022-12-25T14:10:23.178Z,99475.34
2022-12-25T14:12:51.312Z,99477.15
2022-12-25T14:15:21.147Z,99477.83
2022-12-25T14:17:49.065Z,99480.42
2022-12-25T14:20:26.668Z,99477.46
2022-12-25T14:22:55.599Z,99477.46
2022-12-25T14:25:29.819Z,99481.60
2022-12-25T14:28:07.266Z,99484.23
2022-12-25T14:30:35.819Z,99484.20
2022-12-25T14:33:07.582Z,99484.25
2022-12-25T14:35:37.270Z,99482.75
2022-12-25T14:38:07.291Z,99481.96
2022-12-25T14:40:37.311Z,99488.33
2022-12-25T14:43:25.738Z,99486.26
2022-12-25T14:46:01.332Z,99491.08
2022-12-25T14:48:36.260Z,99489.58
2022-12-25T14:51:08.737Z,99490.54
2022-12-25T14:53:39.313Z,99487.67
2022-12-25T14:56:14.311Z,99486.17
2022-12-25T14:58:45.310Z,99494.36
2022-12-25T15:01:40.605Z,99498.38
2022-12-25T15:04:16.950Z,99499.37
2022-12-25T15:06:59.950Z,99510.34
2022-12-25T15:09:30.085Z,99513.92
2022-12-25T15:12:00.511Z,99516.08
2022-12-25T15:14:31.755Z,99518.81
2022-12-25T15:17:02.358Z,99525.23
2022-12-25T15:19:38.677Z,99527.70
2022-12-25T15:22:09.484Z,99534.33
2022-12-25T15:24:39.875Z,99525.72
2022-12-25T15:27:18.479Z,99530.30
2022-12-25T15:37:22.739Z,99551.84
2022-12-25T15:39:49.807Z,99551.90
2022-12-25T15:42:21.962Z,99551.58
2022-12-25T15:44:48.998Z,99557.38
2022-12-25T15:47:16.852Z,99559.58
2022-12-25T15:49:43.903Z,99556.52
2022-12-25T15:52:13.463Z,99554.00
2022-12-25T15:54:40.387Z,99557.55
2022-12-25T15:57:12.352Z,99558.70
2022-12-25T15:59:39.356Z,99552.54
2022-12-25T16:02:09.934Z,99551.61
2022-12-25T16:04:41.234Z,99550.79
2022-12-25T16:07:14.484Z,99551.09
2022-12-25T16:09:41.686Z,99554.05
2022-12-25T16:12:08.625Z,99560.23
2022-12-25T16:14:35.810Z,99563.59
2022-12-25T16:17:03.249Z,99568.83
2022-12-25T16:19:30.257Z,99564.45
2022-12-25T16:21:57.153Z,99564.59
2022-12-25T16:24:24.065Z,99567.30
2022-12-25T16:26:51.037Z,99573.96
2022-12-25T16:29:18.361Z,99571.20
2022-12-25T16:31:45.628Z,99575.16
2022-12-25T16:34:13.188Z,99573.83
2022-12-25T16:36:40.256Z,99571.63
2022-12-25T16:39:07.205Z,99568.45
2022-12-25T16:41:34.225Z,99571.17
2022-12-25T16:44:10.219Z,99574.90
2022-12-25T16:46:38.740Z,99571.83
2022-12-25T16:49:05.802Z,99570.27
2022-12-25T16:51:32.891Z,99567.75
2022-12-25T16:54:00.134Z,99563.09
2022-12-25T16:56:28.714Z,99563.94
2022-12-25T16:58:56.932Z,99564.94
2022-12-25T17:01:24.549Z,99562.86
2022-12-25T17:03:51.835Z,99561.30
2022-12-25T17:06:26.838Z,99568.34
2022-12-25T17:08:56.741Z,99571.58
2022-12-25T17:11:27.409Z,99575.67
2022-12-25T17:13:54.659Z,99574.98
2022-12-25T17:16:26.703Z,99579.73
2022-12-25T17:18:55.761Z,99582.02
2022-12-25T17:21:27.820Z,99575.99
2022-12-25T17:23:59.776Z,99582.70
2022-12-25T17:26:31.410Z,99586.32
2022-12-25T17:29:05.680Z,99583.26
2022-12-25T17:31:33.034Z,99581.95
2022-12-25T17:34:01.381Z,99584.18
2022-12-25T17:36:28.713Z,99591.58
2022-12-25T17:38:55.802Z,99594.46
2022-12-25T17:41:22.948Z,99596.65
2022-12-25T17:43:49.933Z,99603.50
2022-12-25T17:46:18.945Z,99608.49
2022-12-25T17:48:46.000Z,99611.92
2022-12-25T17:51:14.825Z,99616.88
2022-12-25T17:53:43.946Z,99617.86
2022-12-25T17:56:11.057Z,99625.36
2022-12-25T17:58:38.204Z,99628.66
2022-12-25T18:01:09.862Z,99629.46
2022-12-25T18:03:37.160Z,99630.87
2022-12-25T18:06:07.164Z,99638.06
2022-12-25T18:08:39.353Z,99638.19
2022-12-25T18:11:08.791Z,99638.08
2022-12-25T18:13:35.969Z,99631.76
2022-12-25T18:16:05.292Z,99630.56
2022-12-25T18:18:34.395Z,99625.65
2022-12-25T18:21:02.425Z,99622.12
2022-12-25T18:23:29.591Z,99623.71
2022-12-25T18:25:56.928Z,99625.63
2022-12-25T18:28:24.962Z,99622.23
2022-12-25T18:30:52.085Z,99617.12
2022-12-25T18:33:19.092Z,99614.23
2022-12-25T18:35:47.311Z,99617.25
2022-12-25T18:38:17.353Z,99614.89
2022-12-25T18:40:45.662Z,99615.55
2022-12-25T18:43:12.915Z,99612.88
2022-12-25T18:45:40.693Z,99607.63
2022-12-25T18:48:08.530Z,99609.60
2022-12-25T18:50:36.533Z,99614.41
2022-12-25T18:53:04.990Z,99612.86
2022-12-25T18:55:32.348Z,99613.55
2022-12-25T18:57:59.391Z,99614.48
2022-12-25T19:00:31.069Z,99615.55
2022-12-25T19:02:59.067Z,99616.91
2022-12-25T19:05:28.517Z,99618.45
2022-12-25T19:07:55.577Z,99618.81
2022-12-25T19:10:22.713Z,99615.98
2022-12-25T19:12:49.759Z,99621.16
2022-12-25T19:15:16.870Z,99623.29
2022-12-25T19:17:44.067Z,99629.25
2022-12-25T19:20:12.283Z,99626.99
2022-12-25T19:22:39.290Z,99626.02
2022-12-25T19:25:09.956Z,99625.37
2022-12-25T19:27:39.122Z,99619.89
2022-12-25T19:30:11.055Z,99618.11
2022-12-25T19:32:38.525Z,99621.53
2022-12-25T19:35:07.176Z,99625.52
2022-12-25T19:37:35.388Z,99625.38
2022-12-25T19:40:02.422Z,99626.95
2022-12-25T19:42:29.401Z,99628.55
2022-12-25T19:44:56.422Z,99628.12
2022-12-25T19:47:23.330Z,99634.23
2022-12-25T19:49:53.177Z,99639.25
2022-12-25T19:52:20.942Z,99641.52
2022-12-25T19:54:51.540Z,99646.13
2022-12-25T19:57:18.529Z,99653.17
2022-12-25T19:59:48.650Z,99652.32
2022-12-25T20:02:15.878Z,99655.23
2022-12-25T20:04:43.928Z,99652.56
2022-12-25T20:07:11.267Z,99650.83
2022-12-25T20:09:38.429Z,99648.42
2022-12-25T20:12:06.111Z,99653.30
2022-12-25T20:14:33.019Z,99654.02
2022-12-25T20:17:00.131Z,99657.01
2022-12-25T20:19:27.222Z,99657.02
2022-12-25T20:21:58.688Z,99657.40
2022-12-25T20:24:25.662Z,99656.90
2022-12-25T20:26:58.608Z,99653.86
2022-12-25T20:29:26.291Z,99653.98
2022-12-25T20:31:53.995Z,99658.77
2022-12-25T20:34:21.146Z,99666.34
2022-12-25T20:36:49.415Z,99673.56
2022-12-25T20:39:16.442Z,99674.48
2022-12-25T20:41:43.422Z,99675.79
2022-12-25T20:44:10.564Z,99679.48
2022-12-25T20:46:38.094Z,99677.92
2022-12-25T20:49:05.098Z,99681.87
2022-12-25T20:51:32.199Z,99682.48
2022-12-25T20:53:59.084Z,99684.48
2022-12-25T20:56:26.807Z,99682.00
2022-12-25T20:58:58.245Z,99685.86
2022-12-25T21:01:25.899Z,99691.48
2022-12-25T21:03:53.661Z,99690.84
2022-12-25T21:06:21.446Z,99694.96
2022-12-25T21:08:48.272Z,99693.42
2022-12-25T21:11:15.790Z,99698.89
2022-12-25T21:13:43.607Z,99699.91
2022-12-25T21:16:20.297Z,99701.05
2022-12-25T21:18:48.297Z,99701.17
2022-12-25T21:21:15.233Z,99701.73
2022-12-25T21:23:42.552Z,99700.80
2022-12-25T21:26:20.649Z,99701.05
2022-12-25T21:28:51.902Z,99694.27
2022-12-25T21:31:19.077Z,99695.44
2022-12-25T21:33:52.315Z,99690.66
2022-12-25T21:36:27.563Z,99691.23
2022-12-25T21:39:05.735Z,99686.23
2022-12-25T21:41:33.451Z,99683.59
2022-12-25T21:44:00.727Z,99677.14
2022-12-25T21:46:28.137Z,99677.52
2022-12-25T21:48:55.417Z,99674.46
2022-12-25T21:51:42.755Z,99679.04
2022-12-25T21:54:09.880Z,99675.96
2022-12-25T21:56:43.545Z,99673.36
2022-12-25T21:59:16.673Z,99671.80
2022-12-25T22:01:44.232Z,99672.85
2022-12-25T22:04:11.724Z,99669.40
2022-12-25T22:06:57.373Z,99672.29
2022-12-25T22:09:24.454Z,99669.92
2022-12-25T22:12:10.205Z,99674.67
2022-12-25T22:14:57.066Z,99677.77
2022-12-25T22:17:45.358Z,99676.01
2022-12-25T22:20:19.782Z,99679.81
2022-12-25T22:22:47.036Z,99684.64
2022-12-25T22:25:14.281Z,99682.31
2022-12-25T22:27:42.362Z,99678.93
2022-12-25T22:30:14.755Z,99676.57
2022-12-25T22:32:41.604Z,99670.10
2022-12-25T22:35:09.418Z,99675.63
2022-12-25T22:37:38.091Z,99669.73
2022-12-25T22:40:06.487Z,99667.30
2022-12-25T22:42:33.449Z,99663.98
2022-12-25T22:45:00.375Z,99661.54
2022-12-25T22:47:27.281Z,99663.53
2022-12-25T22:49:54.288Z,99659.75
2022-12-25T22:52:21.231Z,99653.33
2022-12-25T22:54:48.170Z,99653.71
2022-12-25T22:57:15.125Z,99655.01
2022-12-25T22:59:42.208Z,99655.07
2022-12-25T23:02:09.291Z,99656.18
2022-12-25T23:04:36.464Z,99649.11
2022-12-25T23:07:03.414Z,99640.98
2022-12-25T23:09:30.916Z,99644.78
2022-12-25T23:11:58.451Z,99642.09
2022-12-25T23:14:41.970Z,99643.55
2022-12-25T23:17:30.915Z,99646.32
2022-12-25T23:20:18.057Z,99649.06
2022-12-25T23:23:04.339Z,99650.84
2022-12-25T23:25:50.190Z,99649.85
2022-12-25T23:28:39.980Z,99653.65
2022-12-25T23:31:06.977Z,99655.42
2022-12-25T23:33:34.048Z,99665.23
2022-12-25T23:36:01.050Z,99667.00
2022-12-25T23:38:28.081Z,99661.46
2022-12-25T23:40:55.041Z,99659.80
2022-12-25T23:43:22.082Z,99655.83
2022-12-25T23:45:49.023Z,99652.85
2022-12-25T23:50:35.595Z,99655.45
2022-12-25T23:53:02.483Z,99654.98
2022-12-25T23:55:29.474Z,99656.14
2022-12-25T23:57:56.504Z,99659.35
